Terminal Aerodrome Forecast
Issued by NWS

Home | Current Version | Previous Version | Text Only | Print | Product List | Glossary On
Versions: 1 2 3 4 5 6 7 8 9 10 11 12 13 14 15 16 17 18 19 20 21 22 23
000
FTUS41 KBOX 241623 AAB
TAFHYA
TAF AMD
KHYA 241623Z 2416/2512 07009G21KT 1 1/2SM +RA FEW015 SCT035 OVC040
     FM241700 08014G27KT 3SM -RA BR OVC008
     FM241900 07012G24KT 3SM -SHRA BR OVC003
     FM242100 07010G18KT 3SM BR VCSH OVC003
     FM242300 01009KT 3SM BR OVC008
     FM250300 36011G19KT P6SM BKN008
     FM251000 01013KT P6SM VCSH BKN008=

USA.gov is the U.S. government's official web portal to all federal, state and local government web resources and services.